sensor_id;sensor_type;location;lat;lon;timestamp;temperature;humidity
42365;DHT22;28498;54.400;18.566;2022-10-28T00:01:11;12.30;99.90
42365;DHT22;28498;54.400;18.566;2022-10-28T00:03:45;12.40;99.90
42365;DHT22;28498;54.400;18.566;2022-10-28T00:06:32;12.40;99.90
42365;DHT22;28498;54.400;18.566;2022-10-28T00:08:59;12.40;99.90
42365;DHT22;28498;54.400;18.566;2022-10-28T00:11:29;12.50;99.90
42365;DHT22;28498;54.400;18.566;2022-10-28T00:13:57;12.40;99.90
42365;DHT22;28498;54.400;18.566;2022-10-28T00:16:28;12.60;99.90
42365;DHT22;28498;54.400;18.566;2022-10-28T00:18:57;12.60;99.90
42365;DHT22;28498;54.400;18.566;2022-10-28T00:21:29;12.70;99.90
42365;DHT22;28498;54.400;18.566;2022-10-28T00:23:56;12.70;99.90
42365;DHT22;28498;54.400;18.566;2022-10-28T00:26:29;12.70;99.90
42365;DHT22;28498;54.400;18.566;2022-10-28T00:29:02;12.80;99.90
42365;DHT22;28498;54.400;18.566;2022-10-28T00:31:30;12.80;99.90
42365;DHT22;28498;54.400;18.566;2022-10-28T00:33:59;12.80;99.90
42365;DHT22;28498;54.400;18.566;2022-10-28T00:36:31;12.70;99.90
42365;DHT22;28498;54.400;18.566;2022-10-28T00:38:59;12.70;99.90
42365;DHT22;28498;54.400;18.566;2022-10-28T00:41:34;12.80;99.90
42365;DHT22;28498;54.400;18.566;2022-10-28T00:46:50;12.80;99.90
42365;DHT22;28498;54.400;18.566;2022-10-28T00:49:23;12.80;99.90
42365;DHT22;28498;54.400;18.566;2022-10-28T00:52:00;12.90;99.90
42365;DHT22;28498;54.400;18.566;2022-10-28T00:54:29;12.80;99.90
42365;DHT22;28498;54.400;18.566;2022-10-28T00:56:57;12.80;99.90
42365;DHT22;28498;54.400;18.566;2022-10-28T00:59:30;12.70;99.90
42365;DHT22;28498;54.400;18.566;2022-10-28T01:01:58;12.70;99.90
42365;DHT22;28498;54.400;18.566;2022-10-28T01:04:26;12.70;99.90
42365;DHT22;28498;54.400;18.566;2022-10-28T01:06:53;12.80;99.90
42365;DHT22;28498;54.400;18.566;2022-10-28T01:09:21;12.80;99.90
42365;DHT22;28498;54.400;18.566;2022-10-28T01:17:12;12.80;99.90
42365;DHT22;28498;54.400;18.566;2022-10-28T01:22:21;12.70;99.90
42365;DHT22;28498;54.400;18.566;2022-10-28T01:31:10;12.70;99.90
42365;DHT22;28498;54.400;18.566;2022-10-28T01:33:46;12.80;99.90
42365;DHT22;28498;54.400;18.566;2022-10-28T01:36:24;12.90;99.90
42365;DHT22;28498;54.400;18.566;2022-10-28T01:39:12;12.70;99.90
42365;DHT22;28498;54.400;18.566;2022-10-28T01:42:07;12.80;99.90
42365;DHT22;28498;54.400;18.566;2022-10-28T01:44:47;12.90;99.90
42365;DHT22;28498;54.400;18.566;2022-10-28T01:47:38;12.70;99.90
42365;DHT22;28498;54.400;18.566;2022-10-28T01:50:24;12.70;99.90
42365;DHT22;28498;54.400;18.566;2022-10-28T01:52:55;12.70;99.90
42365;DHT22;28498;54.400;18.566;2022-10-28T01:55:29;12.60;99.90
42365;DHT22;28498;54.400;18.566;2022-10-28T01:57:58;12.50;99.90
42365;DHT22;28498;54.400;18.566;2022-10-28T02:00:26;12.50;99.90
42365;DHT22;28498;54.400;18.566;2022-10-28T02:02:54;12.40;99.90
42365;DHT22;28498;54.400;18.566;2022-10-28T02:05:39;12.20;99.90
42365;DHT22;28498;54.400;18.566;2022-10-28T02:19:59;12.40;99.90
42365;DHT22;28498;54.400;18.566;2022-10-28T02:23:20;12.30;99.90
42365;DHT22;28498;54.400;18.566;2022-10-28T02:29:12;12.30;99.90
42365;DHT22;28498;54.400;18.566;2022-10-28T02:32:03;12.20;99.90
42365;DHT22;28498;54.400;18.566;2022-10-28T02:34:41;12.10;99.90
42365;DHT22;28498;54.400;18.566;2022-10-28T02:37:17;12.10;99.90
42365;DHT22;28498;54.400;18.566;2022-10-28T02:39:48;12.10;99.90
42365;DHT22;28498;54.400;18.566;2022-10-28T02:42:36;12.00;99.90
42365;DHT22;28498;54.400;18.566;2022-10-28T02:45:20;12.10;99.90
42365;DHT22;28498;54.400;18.566;2022-10-28T02:47:51;12.00;99.90
42365;DHT22;28498;54.400;18.566;2022-10-28T02:50:23;12.00;99.90
42365;DHT22;28498;54.400;18.566;2022-10-28T02:52:53;11.90;99.90
42365;DHT22;28498;54.400;18.566;2022-10-28T02:55:23;11.90;99.90
42365;DHT22;28498;54.400;18.566;2022-10-28T02:57:50;11.90;99.90
42365;DHT22;28498;54.400;18.566;2022-10-28T03:00:20;12.00;99.90
42365;DHT22;28498;54.400;18.566;2022-10-28T03:02:48;12.00;99.90
42365;DHT22;28498;54.400;18.566;2022-10-28T03:05:16;12.00;99.90
42365;DHT22;28498;54.400;18.566;2022-10-28T03:07:43;12.00;99.90
42365;DHT22;28498;54.400;18.566;2022-10-28T03:10:10;12.00;99.90
42365;DHT22;28498;54.400;18.566;2022-10-28T03:12:36;12.00;99.90
42365;DHT22;28498;54.400;18.566;2022-10-28T03:15:03;12.00;99.90
42365;DHT22;28498;54.400;18.566;2022-10-28T03:17:31;12.00;99.90
42365;DHT22;28498;54.400;18.566;2022-10-28T03:19:58;12.00;99.90
42365;DHT22;28498;54.400;18.566;2022-10-28T03:22:25;11.90;99.90
42365;DHT22;28498;54.400;18.566;2022-10-28T03:24:52;11.80;99.90
42365;DHT22;28498;54.400;18.566;2022-10-28T03:27:19;11.70;99.90
42365;DHT22;28498;54.400;18.566;2022-10-28T03:29:46;11.60;99.90
42365;DHT22;28498;54.400;18.566;2022-10-28T03:32:12;11.40;99.90
42365;DHT22;28498;54.400;18.566;2022-10-28T03:34:39;11.30;99.90
42365;DHT22;28498;54.400;18.566;2022-10-28T03:37:07;11.20;99.90
42365;DHT22;28498;54.400;18.566;2022-10-28T03:39:34;11.20;99.90
42365;DHT22;28498;54.400;18.566;2022-10-28T03:42:01;11.10;99.90
42365;DHT22;28498;54.400;18.566;2022-10-28T03:44:28;11.10;99.90
42365;DHT22;28498;54.400;18.566;2022-10-28T03:46:55;10.90;99.90
42365;DHT22;28498;54.400;18.566;2022-10-28T03:49:22;10.90;99.90
42365;DHT22;28498;54.400;18.566;2022-10-28T03:51:49;10.80;99.90
42365;DHT22;28498;54.400;18.566;2022-10-28T03:54:16;10.70;99.90
42365;DHT22;28498;54.400;18.566;2022-10-28T03:56:42;10.70;99.90
42365;DHT22;28498;54.400;18.566;2022-10-28T03:59:10;10.70;99.90
42365;DHT22;28498;54.400;18.566;2022-10-28T04:01:40;10.70;99.90
42365;DHT22;28498;54.400;18.566;2022-10-28T04:04:07;10.60;99.90
42365;DHT22;28498;54.400;18.566;2022-10-28T04:06:34;10.60;99.90
42365;DHT22;28498;54.400;18.566;2022-10-28T04:09:01;10.60;99.90
42365;DHT22;28498;54.400;18.566;2022-10-28T04:11:28;10.60;99.90
42365;DHT22;28498;54.400;18.566;2022-10-28T04:13:55;10.60;99.90
42365;DHT22;28498;54.400;18.566;2022-10-28T04:16:22;10.60;99.90
42365;DHT22;28498;54.400;18.566;2022-10-28T04:18:49;10.60;99.90
42365;DHT22;28498;54.400;18.566;2022-10-28T04:21:16;10.60;99.90
42365;DHT22;28498;54.400;18.566;2022-10-28T04:23:43;10.60;99.90
42365;DHT22;28498;54.400;18.566;2022-10-28T04:26:13;10.60;99.90
42365;DHT22;28498;54.400;18.566;2022-10-28T04:28:41;10.60;99.90
42365;DHT22;28498;54.400;18.566;2022-10-28T04:31:08;10.60;99.90
42365;DHT22;28498;54.400;18.566;2022-10-28T04:33:37;10.60;99.90
42365;DHT22;28498;54.400;18.566;2022-10-28T04:36:04;10.60;99.90
42365;DHT22;28498;54.400;18.566;2022-10-28T04:38:31;10.60;99.90
42365;DHT22;28498;54.400;18.566;2022-10-28T04:40:58;10.60;99.90
42365;DHT22;28498;54.400;18.566;2022-10-28T04:43:25;10.60;99.90
42365;DHT22;28498;54.400;18.566;2022-10-28T04:45:52;10.60;99.90
42365;DHT22;28498;54.400;18.566;2022-10-28T04:48:19;10.60;99.90
42365;DHT22;28498;54.400;18.566;2022-10-28T04:50:47;10.60;99.90
42365;DHT22;28498;54.400;18.566;2022-10-28T04:53:14;10.60;99.90
42365;DHT22;28498;54.400;18.566;2022-10-28T04:55:40;10.70;99.90
42365;DHT22;28498;54.400;18.566;2022-10-28T04:58:08;10.70;99.90
42365;DHT22;28498;54.400;18.566;2022-10-28T05:00:35;10.80;99.90
42365;DHT22;28498;54.400;18.566;2022-10-28T05:03:02;10.80;99.90
42365;DHT22;28498;54.400;18.566;2022-10-28T05:05:29;10.70;99.90
42365;DHT22;28498;54.400;18.566;2022-10-28T05:07:57;10.70;99.90
42365;DHT22;28498;54.400;18.566;2022-10-28T05:10:24;10.70;99.90
42365;DHT22;28498;54.400;18.566;2022-10-28T05:12:51;10.80;99.90
42365;DHT22;28498;54.400;18.566;2022-10-28T05:15:18;10.80;99.90
42365;DHT22;28498;54.400;18.566;2022-10-28T05:17:45;10.80;99.90
42365;DHT22;28498;54.400;18.566;2022-10-28T05:20:15;10.80;99.90
42365;DHT22;28498;54.400;18.566;2022-10-28T05:22:51;10.90;99.90
42365;DHT22;28498;54.400;18.566;2022-10-28T05:25:20;10.90;99.90
42365;DHT22;28498;54.400;18.566;2022-10-28T05:27:47;10.80;99.90
42365;DHT22;28498;54.400;18.566;2022-10-28T05:30:15;10.80;99.90
42365;DHT22;28498;54.400;18.566;2022-10-28T05:32:42;10.80;99.90
42365;DHT22;28498;54.400;18.566;2022-10-28T05:35:09;10.80;99.90
42365;DHT22;28498;54.400;18.566;2022-10-28T05:37:37;10.80;99.90
42365;DHT22;28498;54.400;18.566;2022-10-28T05:40:05;10.70;99.90
42365;DHT22;28498;54.400;18.566;2022-10-28T05:42:32;10.70;99.90
42365;DHT22;28498;54.400;18.566;2022-10-28T05:44:59;10.70;99.90
42365;DHT22;28498;54.400;18.566;2022-10-28T05:47:26;10.60;99.90
42365;DHT22;28498;54.400;18.566;2022-10-28T05:49:53;10.60;99.90
42365;DHT22;28498;54.400;18.566;2022-10-28T05:52:19;10.60;99.90
42365;DHT22;28498;54.400;18.566;2022-10-28T05:54:46;10.70;99.90
42365;DHT22;28498;54.400;18.566;2022-10-28T05:57:13;10.60;99.90
42365;DHT22;28498;54.400;18.566;2022-10-28T05:59:40;10.40;99.90
42365;DHT22;28498;54.400;18.566;2022-10-28T06:02:13;10.30;99.90
42365;DHT22;28498;54.400;18.566;2022-10-28T06:04:41;10.20;99.90
42365;DHT22;28498;54.400;18.566;2022-10-28T06:07:08;10.20;99.90
42365;DHT22;28498;54.400;18.566;2022-10-28T06:09:35;10.20;99.90
42365;DHT22;28498;54.400;18.566;2022-10-28T06:12:02;10.10;99.90
42365;DHT22;28498;54.400;18.566;2022-10-28T06:14:30;10.10;99.90
42365;DHT22;28498;54.400;18.566;2022-10-28T06:16:57;10.10;99.90
42365;DHT22;28498;54.400;18.566;2022-10-28T06:19:24;10.10;99.90
42365;DHT22;28498;54.400;18.566;2022-10-28T06:21:51;10.00;99.90
42365;DHT22;28498;54.400;18.566;2022-10-28T06:24:18;10.00;99.90
42365;DHT22;28498;54.400;18.566;2022-10-28T06:26:45;10.00;99.90
42365;DHT22;28498;54.400;18.566;2022-10-28T06:29:12;10.00;99.90
42365;DHT22;28498;54.400;18.566;2022-10-28T06:31:40;10.00;99.90
42365;DHT22;28498;54.400;18.566;2022-10-28T06:34:10;10.00;99.90
42365;DHT22;28498;54.400;18.566;2022-10-28T06:36:38;10.10;99.90
42365;DHT22;28498;54.400;18.566;2022-10-28T06:39:05;10.20;99.90
42365;DHT22;28498;54.400;18.566;2022-10-28T06:41:33;10.30;99.90
42365;DHT22;28498;54.400;18.566;2022-10-28T06:44:00;10.30;99.90
42365;DHT22;28498;54.400;18.566;2022-10-28T06:46:27;10.40;99.90
42365;DHT22;28498;54.400;18.566;2022-10-28T06:48:55;10.50;99.90
42365;DHT22;28498;54.400;18.566;2022-10-28T06:51:22;10.60;99.90
42365;DHT22;28498;54.400;18.566;2022-10-28T06:53:50;10.70;99.90
42365;DHT22;28498;54.400;18.566;2022-10-28T06:56:17;10.80;99.90
42365;DHT22;28498;54.400;18.566;2022-10-28T06:58:51;11.00;99.90
42365;DHT22;28498;54.400;18.566;2022-10-28T07:01:19;11.10;99.90
42365;DHT22;28498;54.400;18.566;2022-10-28T07:03:47;11.20;99.90
42365;DHT22;28498;54.400;18.566;2022-10-28T07:06:15;11.10;99.90
42365;DHT22;28498;54.400;18.566;2022-10-28T07:08:42;11.10;99.90
42365;DHT22;28498;54.400;18.566;2022-10-28T07:11:09;11.10;99.90
42365;DHT22;28498;54.400;18.566;2022-10-28T07:13:36;11.00;99.90
42365;DHT22;28498;54.400;18.566;2022-10-28T07:16:04;11.00;99.90
42365;DHT22;28498;54.400;18.566;2022-10-28T07:22:19;11.10;99.90
42365;DHT22;28498;54.400;18.566;2022-10-28T07:24:51;11.40;99.90
42365;DHT22;28498;54.400;18.566;2022-10-28T07:27:18;11.50;99.90
42365;DHT22;28498;54.400;18.566;2022-10-28T07:29:44;11.60;99.90
42365;DHT22;28498;54.400;18.566;2022-10-28T07:32:11;11.70;99.90
42365;DHT22;28498;54.400;18.566;2022-10-28T07:34:38;11.90;99.90
42365;DHT22;28498;54.400;18.566;2022-10-28T07:37:05;12.00;99.90
42365;DHT22;28498;54.400;18.566;2022-10-28T07:39:32;12.10;99.90
42365;DHT22;28498;54.400;18.566;2022-10-28T07:41:59;12.20;99.90
42365;DHT22;28498;54.400;18.566;2022-10-28T07:44:27;12.20;99.90
42365;DHT22;28498;54.400;18.566;2022-10-28T07:46:54;12.20;99.90
42365;DHT22;28498;54.400;18.566;2022-10-28T07:49:23;12.30;99.90
42365;DHT22;28498;54.400;18.566;2022-10-28T07:51:51;12.40;99.90
42365;DHT22;28498;54.400;18.566;2022-10-28T07:54:17;12.50;99.90
42365;DHT22;28498;54.400;18.566;2022-10-28T07:56:44;12.60;99.90
42365;DHT22;28498;54.400;18.566;2022-10-28T07:59:11;12.60;99.90
42365;DHT22;28498;54.400;18.566;2022-10-28T08:01:38;12.70;99.90
42365;DHT22;28498;54.400;18.566;2022-10-28T08:04:06;12.60;99.90
42365;DHT22;28498;54.400;18.566;2022-10-28T08:06:33;12.60;99.90
42365;DHT22;28498;54.400;18.566;2022-10-28T08:09:01;12.50;99.90
42365;DHT22;28498;54.400;18.566;2022-10-28T08:11:29;12.50;99.90
42365;DHT22;28498;54.400;18.566;2022-10-28T08:13:56;12.60;99.90
42365;DHT22;28498;54.400;18.566;2022-10-28T08:16:23;12.90;99.90
42365;DHT22;28498;54.400;18.566;2022-10-28T08:18:50;12.90;99.90
42365;DHT22;28498;54.400;18.566;2022-10-28T08:21:18;12.90;99.90
42365;DHT22;28498;54.400;18.566;2022-10-28T08:23:45;12.90;99.90
42365;DHT22;28498;54.400;18.566;2022-10-28T08:26:13;13.00;99.90
42365;DHT22;28498;54.400;18.566;2022-10-28T08:28:41;13.00;99.90
42365;DHT22;28498;54.400;18.566;2022-10-28T08:31:09;13.10;99.90
42365;DHT22;28498;54.400;18.566;2022-10-28T08:33:42;13.20;99.90
42365;DHT22;28498;54.400;18.566;2022-10-28T08:36:13;13.30;99.90
42365;DHT22;28498;54.400;18.566;2022-10-28T08:38:42;13.40;99.90
42365;DHT22;28498;54.400;18.566;2022-10-28T08:41:32;13.60;99.90
42365;DHT22;28498;54.400;18.566;2022-10-28T08:49:48;14.00;99.90
42365;DHT22;28498;54.400;18.566;2022-10-28T08:52:38;14.20;99.90
42365;DHT22;28498;54.400;18.566;2022-10-28T08:55:10;14.40;99.90
42365;DHT22;28498;54.400;18.566;2022-10-28T08:57:42;14.60;99.90
42365;DHT22;28498;54.400;18.566;2022-10-28T09:00:36;14.80;99.90
42365;DHT22;28498;54.400;18.566;2022-10-28T09:05:40;15.20;99.90
42365;DHT22;28498;54.400;18.566;2022-10-28T09:17:16;15.90;99.90
42365;DHT22;28498;54.400;18.566;2022-10-28T09:19:51;16.20;99.90
42365;DHT22;28498;54.400;18.566;2022-10-28T09:22:23;16.60;99.90
42365;DHT22;28498;54.400;18.566;2022-10-28T09:24:55;16.90;99.90
42365;DHT22;28498;54.400;18.566;2022-10-28T09:31:01;17.50;99.90
42365;DHT22;28498;54.400;18.566;2022-10-28T09:36:14;17.70;99.90
42365;DHT22;28498;54.400;18.566;2022-10-28T09:38:43;17.70;99.90
42365;DHT22;28498;54.400;18.566;2022-10-28T09:41:21;17.70;99.90
42365;DHT22;28498;54.400;18.566;2022-10-28T09:43:58;17.70;99.90
42365;DHT22;28498;54.400;18.566;2022-10-28T09:46:30;17.80;99.90
42365;DHT22;28498;54.400;18.566;2022-10-28T09:49:07;17.80;99.90
42365;DHT22;28498;54.400;18.566;2022-10-28T09:52:03;17.70;99.90
42365;DHT22;28498;54.400;18.566;2022-10-28T09:54:34;17.90;99.90
42365;DHT22;28498;54.400;18.566;2022-10-28T09:57:03;17.80;99.90
42365;DHT22;28498;54.400;18.566;2022-10-28T09:59:30;17.80;99.90
42365;DHT22;28498;54.400;18.566;2022-10-28T10:01:57;17.90;99.90
42365;DHT22;28498;54.400;18.566;2022-10-28T10:04:27;17.80;99.90
42365;DHT22;28498;54.400;18.566;2022-10-28T10:07:06;17.80;99.90
42365;DHT22;28498;54.400;18.566;2022-10-28T10:09:36;17.80;99.90
42365;DHT22;28498;54.400;18.566;2022-10-28T10:12:07;17.70;99.90
42365;DHT22;28498;54.400;18.566;2022-10-28T10:17:39;17.70;99.90
42365;DHT22;28498;54.400;18.566;2022-10-28T10:20:44;17.70;99.90
42365;DHT22;28498;54.400;18.566;2022-10-28T10:23:35;17.70;99.90
42365;DHT22;28498;54.400;18.566;2022-10-28T10:26:14;17.80;99.90
42365;DHT22;28498;54.400;18.566;2022-10-28T10:28:46;17.90;99.90
42365;DHT22;28498;54.400;18.566;2022-10-28T10:31:32;17.80;99.90
42365;DHT22;28498;54.400;18.566;2022-10-28T10:33:59;17.90;99.90
42365;DHT22;28498;54.400;18.566;2022-10-28T10:36:26;18.00;99.90
42365;DHT22;28498;54.400;18.566;2022-10-28T10:38:59;18.00;99.90
42365;DHT22;28498;54.400;18.566;2022-10-28T10:41:37;18.10;99.90
42365;DHT22;28498;54.400;18.566;2022-10-28T10:49:36;18.40;99.90
42365;DHT22;28498;54.400;18.566;2022-10-28T10:52:22;18.50;99.90
42365;DHT22;28498;54.400;18.566;2022-10-28T10:55:00;18.60;99.90
42365;DHT22;28498;54.400;18.566;2022-10-28T10:57:27;18.40;99.90
42365;DHT22;28498;54.400;18.566;2022-10-28T10:59:56;18.20;99.90
42365;DHT22;28498;54.400;18.566;2022-10-28T11:02:32;18.00;99.90
42365;DHT22;28498;54.400;18.566;2022-10-28T11:05:06;17.80;99.90
42365;DHT22;28498;54.400;18.566;2022-10-28T11:07:35;17.70;99.90
42365;DHT22;28498;54.400;18.566;2022-10-28T11:10:03;17.80;99.90
42365;DHT22;28498;54.400;18.566;2022-10-28T11:12:32;17.80;99.90
42365;DHT22;28498;54.400;18.566;2022-10-28T11:17:56;17.70;99.90
42365;DHT22;28498;54.400;18.566;2022-10-28T11:20:26;17.70;99.90
42365;DHT22;28498;54.400;18.566;2022-10-28T11:25:44;17.70;99.90
42365;DHT22;28498;54.400;18.566;2022-10-28T11:28:28;17.70;99.90
42365;DHT22;28498;54.400;18.566;2022-10-28T11:31:05;17.70;99.90
42365;DHT22;28498;54.400;18.566;2022-10-28T11:39:33;17.90;99.90
42365;DHT22;28498;54.400;18.566;2022-10-28T11:44:53;17.80;99.90
42365;DHT22;28498;54.400;18.566;2022-10-28T11:50:28;17.80;99.90
42365;DHT22;28498;54.400;18.566;2022-10-28T11:56:36;17.80;99.90
42365;DHT22;28498;54.400;18.566;2022-10-28T11:59:19;17.80;99.90
42365;DHT22;28498;54.400;18.566;2022-10-28T12:13:58;17.70;99.90
42365;DHT22;28498;54.400;18.566;2022-10-28T12:21:34;17.70;99.90
42365;DHT22;28498;54.400;18.566;2022-10-28T12:24:04;17.80;99.90
42365;DHT22;28498;54.400;18.566;2022-10-28T12:29:18;17.80;99.90
42365;DHT22;28498;54.400;18.566;2022-10-28T12:31:54;17.90;99.90
42365;DHT22;28498;54.400;18.566;2022-10-28T12:34:54;18.00;99.90
42365;DHT22;28498;54.400;18.566;2022-10-28T12:37:31;18.00;99.90
42365;DHT22;28498;54.400;18.566;2022-10-28T12:40:14;18.10;99.90
42365;DHT22;28498;54.400;18.566;2022-10-28T12:45:19;17.90;99.90
42365;DHT22;28498;54.400;18.566;2022-10-28T12:50:43;17.90;99.90
42365;DHT22;28498;54.400;18.566;2022-10-28T12:56:08;18.30;99.90
42365;DHT22;28498;54.400;18.566;2022-10-28T12:58:48;18.40;99.90
42365;DHT22;28498;54.400;18.566;2022-10-28T13:01:18;18.70;99.90
42365;DHT22;28498;54.400;18.566;2022-10-28T13:03:48;18.80;99.90
42365;DHT22;28498;54.400;18.566;2022-10-28T13:18:03;19.00;99.90
42365;DHT22;28498;54.400;18.566;2022-10-28T13:23:35;19.00;99.90
42365;DHT22;28498;54.400;18.566;2022-10-28T13:26:25;19.10;99.90
42365;DHT22;28498;54.400;18.566;2022-10-28T13:28:55;19.40;99.90
42365;DHT22;28498;54.400;18.566;2022-10-28T13:31:23;19.50;99.90
42365;DHT22;28498;54.400;18.566;2022-10-28T13:34:01;19.50;99.90
42365;DHT22;28498;54.400;18.566;2022-10-28T13:36:36;19.60;99.90
42365;DHT22;28498;54.400;18.566;2022-10-28T13:39:27;19.70;99.90
42365;DHT22;28498;54.400;18.566;2022-10-28T13:44:51;19.80;99.90
42365;DHT22;28498;54.400;18.566;2022-10-28T13:47:30;19.80;99.90
42365;DHT22;28498;54.400;18.566;2022-10-28T13:52:36;19.70;99.90
42365;DHT22;28498;54.400;18.566;2022-10-28T13:57:43;19.40;99.90
42365;DHT22;28498;54.400;18.566;2022-10-28T14:02:53;19.40;99.90
42365;DHT22;28498;54.400;18.566;2022-10-28T14:08:27;19.30;99.90
42365;DHT22;28498;54.400;18.566;2022-10-28T14:11:10;19.10;99.90
42365;DHT22;28498;54.400;18.566;2022-10-28T14:14:02;19.00;99.90
42365;DHT22;28498;54.400;18.566;2022-10-28T14:16:42;18.90;99.90
42365;DHT22;28498;54.400;18.566;2022-10-28T14:24:39;18.40;99.90
42365;DHT22;28498;54.400;18.566;2022-10-28T14:40:45;17.80;99.90
42365;DHT22;28498;54.400;18.566;2022-10-28T14:49:02;17.30;99.90
42365;DHT22;28498;54.400;18.566;2022-10-28T14:51:37;17.20;99.90
42365;DHT22;28498;54.400;18.566;2022-10-28T14:54:11;17.10;99.90
42365;DHT22;28498;54.400;18.566;2022-10-28T14:56:39;16.90;99.90
42365;DHT22;28498;54.400;18.566;2022-10-28T14:59:26;16.80;99.90
42365;DHT22;28498;54.400;18.566;2022-10-28T15:01:59;16.70;99.90
42365;DHT22;28498;54.400;18.566;2022-10-28T15:04:27;16.60;99.90
42365;DHT22;28498;54.400;18.566;2022-10-28T15:06:55;16.40;99.90
42365;DHT22;28498;54.400;18.566;2022-10-28T15:09:28;16.40;99.90
42365;DHT22;28498;54.400;18.566;2022-10-28T15:11:59;16.30;99.90
42365;DHT22;28498;54.400;18.566;2022-10-28T15:14:31;16.10;99.90
42365;DHT22;28498;54.400;18.566;2022-10-28T15:17:02;16.00;99.90
42365;DHT22;28498;54.400;18.566;2022-10-28T15:19:33;15.80;99.90
42365;DHT22;28498;54.400;18.566;2022-10-28T15:22:18;15.80;99.90
42365;DHT22;28498;54.400;18.566;2022-10-28T15:25:04;15.70;99.90
42365;DHT22;28498;54.400;18.566;2022-10-28T15:27:33;15.60;99.90
42365;DHT22;28498;54.400;18.566;2022-10-28T15:30:01;15.50;99.90
42365;DHT22;28498;54.400;18.566;2022-10-28T15:32:32;15.30;99.90
42365;DHT22;28498;54.400;18.566;2022-10-28T15:35:37;15.40;99.90
42365;DHT22;28498;54.400;18.566;2022-10-28T15:38:23;15.60;99.90
42365;DHT22;28498;54.400;18.566;2022-10-28T15:40:50;15.60;99.90
42365;DHT22;28498;54.400;18.566;2022-10-28T15:43:27;15.40;99.90
42365;DHT22;28498;54.400;18.566;2022-10-28T15:46:15;15.40;99.90
42365;DHT22;28498;54.400;18.566;2022-10-28T15:48:42;15.20;99.90
42365;DHT22;28498;54.400;18.566;2022-10-28T15:51:17;15.10;99.90
42365;DHT22;28498;54.400;18.566;2022-10-28T15:54:08;15.00;99.90
42365;DHT22;28498;54.400;18.566;2022-10-28T15:56:56;15.00;99.90
42365;DHT22;28498;54.400;18.566;2022-10-28T15:59:24;14.90;99.90
42365;DHT22;28498;54.400;18.566;2022-10-28T16:01:52;14.90;99.90
42365;DHT22;28498;54.400;18.566;2022-10-28T16:04:40;14.80;99.90
42365;DHT22;28498;54.400;18.566;2022-10-28T16:07:08;14.70;99.90
42365;DHT22;28498;54.400;18.566;2022-10-28T16:09:46;14.60;99.90
42365;DHT22;28498;54.400;18.566;2022-10-28T16:12:16;14.40;99.90
42365;DHT22;28498;54.400;18.566;2022-10-28T16:15:00;14.30;99.90
42365;DHT22;28498;54.400;18.566;2022-10-28T16:17:34;14.20;99.90
42365;DHT22;28498;54.400;18.566;2022-10-28T16:20:09;14.20;99.90
42365;DHT22;28498;54.400;18.566;2022-10-28T16:22:44;14.10;99.90
42365;DHT22;28498;54.400;18.566;2022-10-28T16:25:21;14.10;99.90
42365;DHT22;28498;54.400;18.566;2022-10-28T16:31:30;14.10;99.90
42365;DHT22;28498;54.400;18.566;2022-10-28T16:33:57;14.10;99.90
42365;DHT22;28498;54.400;18.566;2022-10-28T16:36:25;14.10;99.90
42365;DHT22;28498;54.400;18.566;2022-10-28T16:38:53;14.00;99.90
42365;DHT22;28498;54.400;18.566;2022-10-28T16:41:20;13.90;99.90
42365;DHT22;28498;54.400;18.566;2022-10-28T16:43:48;13.80;99.90
42365;DHT22;28498;54.400;18.566;2022-10-28T16:46:15;13.80;99.90
42365;DHT22;28498;54.400;18.566;2022-10-28T16:48:42;13.70;99.90
42365;DHT22;28498;54.400;18.566;2022-10-28T16:51:14;13.60;99.90
42365;DHT22;28498;54.400;18.566;2022-10-28T16:53:43;13.50;99.90
42365;DHT22;28498;54.400;18.566;2022-10-28T16:56:13;13.40;99.90
42365;DHT22;28498;54.400;18.566;2022-10-28T16:58:42;13.30;99.90
42365;DHT22;28498;54.400;18.566;2022-10-28T17:01:10;13.20;99.90
42365;DHT22;28498;54.400;18.566;2022-10-28T17:03:37;13.20;99.90
42365;DHT22;28498;54.400;18.566;2022-10-28T17:06:04;13.10;99.90
42365;DHT22;28498;54.400;18.566;2022-10-28T17:08:31;13.00;99.90
42365;DHT22;28498;54.400;18.566;2022-10-28T17:11:18;12.90;99.90
42365;DHT22;28498;54.400;18.566;2022-10-28T17:13:45;12.90;99.90
42365;DHT22;28498;54.400;18.566;2022-10-28T17:16:13;12.80;99.90
42365;DHT22;28498;54.400;18.566;2022-10-28T17:18:40;12.80;99.90
42365;DHT22;28498;54.400;18.566;2022-10-28T17:21:09;12.80;99.90
42365;DHT22;28498;54.400;18.566;2022-10-28T17:23:38;12.80;99.90
42365;DHT22;28498;54.400;18.566;2022-10-28T17:26:05;12.80;99.90
42365;DHT22;28498;54.400;18.566;2022-10-28T17:28:32;12.80;99.90
42365;DHT22;28498;54.400;18.566;2022-10-28T17:31:04;12.80;99.90
42365;DHT22;28498;54.400;18.566;2022-10-28T17:33:32;12.70;99.90
42365;DHT22;28498;54.400;18.566;2022-10-28T17:36:03;12.70;99.90
42365;DHT22;28498;54.400;18.566;2022-10-28T17:38:31;12.70;99.90
42365;DHT22;28498;54.400;18.566;2022-10-28T17:40:58;12.70;99.90
42365;DHT22;28498;54.400;18.566;2022-10-28T17:43:25;12.70;99.90
42365;DHT22;28498;54.400;18.566;2022-10-28T17:46:04;12.60;99.90
42365;DHT22;28498;54.400;18.566;2022-10-28T17:48:32;12.50;99.90
42365;DHT22;28498;54.400;18.566;2022-10-28T17:50:59;12.40;99.90
42365;DHT22;28498;54.400;18.566;2022-10-28T17:53:26;12.50;99.90
42365;DHT22;28498;54.400;18.566;2022-10-28T17:56:00;12.40;99.90
42365;DHT22;28498;54.400;18.566;2022-10-28T17:58:27;12.40;99.90
42365;DHT22;28498;54.400;18.566;2022-10-28T18:00:59;12.40;99.90
42365;DHT22;28498;54.400;18.566;2022-10-28T18:03:27;12.40;99.90
42365;DHT22;28498;54.400;18.566;2022-10-28T18:05:54;12.50;99.90
42365;DHT22;28498;54.400;18.566;2022-10-28T18:08:21;12.40;99.90
42365;DHT22;28498;54.400;18.566;2022-10-28T18:14:36;12.50;99.90
42365;DHT22;28498;54.400;18.566;2022-10-28T18:17:03;12.40;99.90
42365;DHT22;28498;54.400;18.566;2022-10-28T18:19:29;12.40;99.90
42365;DHT22;28498;54.400;18.566;2022-10-28T18:21:56;12.40;99.90
42365;DHT22;28498;54.400;18.566;2022-10-28T18:24:23;12.30;99.90
42365;DHT22;28498;54.400;18.566;2022-10-28T18:26:53;12.20;99.90
42365;DHT22;28498;54.400;18.566;2022-10-28T18:29:20;12.20;99.90
42365;DHT22;28498;54.400;18.566;2022-10-28T18:35:34;12.30;99.90
42365;DHT22;28498;54.400;18.566;2022-10-28T18:38:01;12.20;99.90
42365;DHT22;28498;54.400;18.566;2022-10-28T18:40:28;12.20;99.90
42365;DHT22;28498;54.400;18.566;2022-10-28T18:46:43;12.10;99.90